Flight Track Log - Related Links

Times and Time Zones

All times are in EDT time to prevent confusion due to time zone crossing. See the N960DL flight status page for this flight to view local times or setup timezone preferences in your user account.

Time Position Orientation Groundspeed Altitude Reporting Facility
EDT Latitude Longitude Course Direction KTS MPH feet Rate Location/Type
Mon 02:33:39 PM 29.9617 -95.3436 90° East 159 183 1,000  Level Houston Center
Mon 02:35:04 PM 29.9372 -95.2567 108° East 246 283 3,400 2,408 Climbing Houston Center
Mon 02:36:06 PM 29.9275 -95.1700 97° East 277 319 6,900 3,290 Climbing Houston Center
Mon 02:37:00 PM 29.9834 -94.7651 90° East  Level FlightAware Approximate
Mon 02:37:08 PM 29.9353 -95.0794 84° East 282 325 10,200  Level Houston Center
Mon 02:38:00 PM 29.9833 -94.6230 90° East  Level FlightAware Approximate
Mon 02:38:10 PM 29.9464 -94.9739 83° East 336 387 11,700  Level Houston Center
Mon 02:39:13 PM 29.9594 -94.8517 83° East 376 433 14,200 2,592 Climbing Houston Center
Mon 02:40:15 PM 29.9747 -94.6942 84° East 410 472 17,100 2,516 Climbing Houston Center
Mon 02:41:17 PM 29.9881 -94.5578 84° East 424 488 19,400 2,081 Climbing Houston Center
Mon 02:42:19 PM 29.9925 -94.4133 88° East 443 510 21,400 1,742 Climbing Houston Center
Mon 02:43:21 PM 30.0003 -94.2669 86° East 458 527 23,000 1,500 Climbing Houston Center
Mon 02:44:23 PM 30.0197 -94.1139 82° East 482 555 24,500 1,790 Climbing Houston Center
Mon 02:45:25 PM 30.0383 -93.9608 82° East 485 558 26,700 2,256 Climbing Houston Center
Mon 02:46:28 PM 30.0608 -93.7797 82° East 480 552 29,200 1,968 Climbing Houston Center
Mon 02:47:30 PM 30.0786 -93.6319 82° East 474 545 30,800 1,355 Climbing Houston Center
Mon 02:48:32 PM 30.0953 -93.4847 83° East 471 542 32,000 1,065 Climbing Houston Center
Mon 02:49:34 PM 30.1133 -93.3356 82° East 476 548 33,000 484 Climbing Houston Center
Mon 02:50:36 PM 30.1342 -93.1578 82° East 471 542 33,000  Level Houston Center
Mon 02:51:38 PM 30.1600 -93.0083 79° East 477 549 33,000  Level Houston Center
Mon 02:52:40 PM 30.1900 -92.8600 77° East 476 548 33,000  Level Houston Center
Mon 02:53:42 PM 30.2264 -92.7125 74° East 477 549 33,000  Level Houston Center
Mon 02:54:45 PM 30.2675 -92.5664 72° East 479 551 33,000  Level Houston Center
Mon 02:55:47 PM 30.3147 -92.3922 73° East 475 547 33,000  Level Houston Center
Mon 02:56:49 PM 30.3519 -92.2558 72° East 473 544 33,000  Level Houston Center
Mon 02:57:51 PM 30.3919 -92.1117 72° East 473 544 33,000  Level Houston Center
Mon 02:58:53 PM 30.4319 -91.9703 72° East 466 536 33,000  Level Houston Center
Mon 02:59:55 PM 30.4800 -91.7997 72° East 467 537 33,000  Level Houston Center
Mon 03:00:57 PM 30.5186 -91.6531 73° East 478 550 33,000  Level Houston Center
Mon 03:02:00 PM 30.5586 -91.5061 72° East 479 551 33,000  Level Houston Center
Mon 03:03:02 PM 30.6017 -91.3400 73° East 479 551 33,000  Level Houston Center
Mon 03:04:04 PM 30.6414 -91.1908 73° East 482 555 33,000  Level Houston Center
Mon 03:05:06 PM 30.6803 -91.0406 73° East 485 558 33,000  Level Houston Center
Mon 03:06:09 PM 30.7194 -90.8908 73° East 485 558 33,000  Level Houston Center
Mon 03:07:10 PM 30.7581 -90.7400 73° East 486 559 33,000  Level Houston Center
Mon 03:08:13 PM 30.7969 -90.5897 73° East 486 559 33,000  Level Houston Center
Mon 03:09:15 PM 30.8364 -90.4408 73° East 483 556 33,000  Level Houston Center
Mon 03:10:17 PM 30.8819 -90.2603 74° East 482 555 33,000  Level Houston Center
Mon 03:11:19 PM 30.9222 -90.1092 73° East 486 559 33,000  Level Houston Center
Mon 03:12:21 PM 30.9614 -89.9572 73° East 488 562 33,000  Level Houston Center
Mon 03:13:23 PM 31.0011 -89.8039 73° East 490 564 33,000  Level Houston Center
Mon 03:14:25 PM 31.0400 -89.6511 73° East 490 564 33,000  Level Houston Center
Mon 03:15:28 PM 31.0772 -89.4972 74° East 491 565 33,000  Level Houston Center
Mon 03:16:30 PM 31.1253 -89.3125 73° East 494 568 33,000  Level Houston Center
Mon 03:17:32 PM 31.1633 -89.1583 74° East 495 570 33,000  Level Houston Center
Mon 03:18:34 PM 31.2019 -89.0044 74° East 493 567 33,000  Level Houston Center
Mon 03:19:36 PM 31.2422 -88.8392 74° East 494 568 33,000  Level Houston Center
Mon 03:20:38 PM 31.2806 -88.6842 74° East 495 570 33,000  Level Houston Center
Mon 03:21:40 PM 31.3175 -88.5272 75° East 496 571 33,000  Level Houston Center
Mon 03:22:42 PM 31.3556 -88.3706 74° East 494 568 33,000  Level Houston Center
Mon 03:23:45 PM 31.3969 -88.2158 73° East 493 567 33,000  Level Houston Center
Mon 03:24:47 PM 31.4689 -88.0783 58° Northeast 496 571 33,000  Level Houston Center
Mon 03:25:49 PM 31.5444 -87.9436 57° Northeast 492 566 33,000  Level Houston Center
Mon 03:26:51 PM 31.6361 -87.7828 56° Northeast 494 568 33,000  Level Houston Center
Mon 03:27:53 PM 31.7128 -87.6500 56° Northeast 491 565 33,000  Level Houston Center
Mon 03:28:55 PM 31.7878 -87.5150 57° Northeast 493 567 33,000  Level Houston Center
Mon 03:29:55 PM 31.8706 -87.3744 55° Northeast 488 562 33,000  Level Atlanta Center
Mon 03:30:55 PM 31.9367 -87.2497 58° Northeast 488 562 33,000  Level Atlanta Center
Mon 03:31:55 PM 32.0108 -87.1153 57° Northeast 488 562 33,000  Level Atlanta Center
Mon 03:32:55 PM 32.0853 -86.9806 57° Northeast 493 567 33,000 -250 Level Atlanta Center
Mon 03:33:55 PM 32.1592 -86.8481 57° Northeast 487 560 32,500 -1,650 Descending Atlanta Center
Mon 03:34:55 PM 32.2333 -86.7128 57° Northeast 487 560 29,700 -1,750 Descending Atlanta Center
Mon 03:35:55 PM 32.3197 -86.5703 54° Northeast 487 560 29,000 -350 Descending Atlanta Center
Mon 03:36:55 PM 32.3869 -86.4394 59° Northeast 475 547 29,000 -900 Level Atlanta Center
Mon 03:37:55 PM 32.4522 -86.3058 60° Northeast 470 541 27,200 -1,500 Descending Atlanta Center
Mon 03:38:55 PM 32.5189 -86.1894 56° Northeast 458 527 26,000 -1,050 Descending Atlanta Center
Mon 03:39:55 PM 32.5900 -86.0603 57° Northeast 463 533 25,100 -800 Descending Atlanta Center
Mon 03:40:55 PM 32.6567 -85.9361 57° Northeast 453 521 24,400 -650 Descending Atlanta Center
Mon 03:41:55 PM 32.7297 -85.8044 57° Northeast 440 506 23,800 -650 Descending Atlanta Center
Mon 03:42:55 PM 32.7917 -85.6894 57° Northeast 426 490 23,100 -500 Descending Atlanta Center
Mon 03:43:55 PM 32.8539 -85.5669 59° Northeast 421 484 22,800 -350 Descending Atlanta Center
Mon 03:44:55 PM 32.9178 -85.4517 57° Northeast 421 484 22,400 -350 Descending Atlanta Center
Mon 03:45:55 PM 32.9756 -85.3389 59° Northeast 421 484 22,100 -1,300 Descending Atlanta Center
Mon 03:46:55 PM 33.0372 -85.2258 57° Northeast 410 472 19,800 -2,750 Descending Atlanta Center
Mon 03:47:55 PM 33.0983 -85.1397 50° Northeast 393 452 16,600 -2,850 Descending Atlanta Center
Mon 03:48:55 PM 33.1722 -85.0489 46° Northeast 374 430 14,100 -1,600 Descending Atlanta Center
Mon 03:49:55 PM 33.2483 -84.9481 48° Northeast 374 430 13,400 -1,050 Descending Atlanta Center
Mon 03:50:55 PM 33.3156 -84.8567 49° Northeast 369 425 12,000 -700 Descending Atlanta Center
Mon 03:51:55 PM 33.3831 -84.7678 48° Northeast 363 418 12,000 -63 Level Atlanta Center
Mon 03:52:30 PM 33.4333 -84.7000 48° Northeast 363 418 11,900 -63 Descending Atlanta TRACON
Mon 03:53:30 PM 33.4833 -84.6333 48° Northeast 306 352 11,900 -300 Level Atlanta TRACON
Mon 03:54:30 PM 33.5333 -84.5500 54° Northeast 275 316 11,300 -1,250 Descending Atlanta TRACON
Mon 03:55:30 PM 33.5500 -84.4667 76° East 282 325 9,400 -1,900 Descending Atlanta TRACON
Mon 03:56:30 PM 33.5500 -84.3667 90° East 287 330 7,500 -1,900 Descending Atlanta TRACON
Mon 03:57:30 PM 33.5500 -84.2833 90° East 265 305 5,600 -1,550 Descending Atlanta TRACON
Mon 03:58:30 PM 33.5500 -84.2000 90° East 232 267 4,400 -1,316 Descending Atlanta TRACON
Mon 03:59:24 PM 33.5500 -84.1333 90° East 226 260 3,100 -789 Descending Atlanta TRACON
Mon 04:00:24 PM 33.6167 -84.1500 348° North 219 252 2,900 -50 Descending Atlanta TRACON
Mon 04:01:24 PM 33.6167 -84.2167 270° West 199 229 3,000 50 Climbing Atlanta TRACON
Mon 04:02:24 PM 33.6167 -84.2667 270° West 188 216 3,000 -300 Level Atlanta TRACON
Mon 04:03:24 PM 33.6167 -84.3333 270° West 185 213 2,400 -750 Descending Atlanta TRACON
Mon 04:04:24 PM 33.6167 -84.3833 270° West 155 178 1,500 -900 Descending Atlanta TRACON
Mon 04:06:00 PM 33.6333 -84.4167 292° West  Level FlightAware Approximate
Mon 04:13:00 PM 33.6367 -84.4279 292° West  Level Estimated

Login

Don't have an account? Register now (free) for customized features, flight alerts, and more!